createdAt,value
2018-09-30T00:00:14.060Z,1018.32
2018-09-30T00:01:23.495Z,1018.3
2018-09-30T00:02:33.424Z,1018.3
2018-09-30T00:03:43.376Z,1018.29
2018-09-30T00:04:53.313Z,1018.28
2018-09-30T00:06:02.987Z,1018.28
2018-09-30T00:07:12.938Z,1018.26
2018-09-30T00:08:22.632Z,1018.3
2018-09-30T00:09:32.552Z,1018.23
2018-09-30T00:10:42.255Z,1018.27
2018-09-30T00:11:52.171Z,1018.19
2018-09-30T00:13:02.122Z,1018.21
2018-09-30T00:14:12.064Z,1018.21
2018-09-30T00:15:21.755Z,1018.17
2018-09-30T00:16:31.445Z,1018.14
2018-09-30T00:17:41.426Z,1018.17
2018-09-30T00:18:51.127Z,1018.21
2018-09-30T00:20:00.567Z,1018.16
2018-09-30T00:21:10.255Z,1018.16
2018-09-30T00:22:20.176Z,1018.14
2018-09-30T00:23:30.121Z,1018.09
2018-09-30T00:24:40.065Z,1018.08
2018-09-30T00:25:49.755Z,1018.08
2018-09-30T00:26:59.695Z,1018.09
2018-09-30T00:28:09.366Z,1018.03
2018-09-30T00:29:19.302Z,1018.03
2018-09-30T00:30:29.254Z,1018.04
2018-09-30T00:31:39.192Z,1017.99
2018-09-30T00:32:49.156Z,1018
2018-09-30T00:33:59.096Z,1017.98
2018-09-30T00:35:09.055Z,1018.01
2018-09-30T00:36:18.804Z,1017.99
2018-09-30T00:37:28.849Z,1017.97
2018-09-30T00:38:38.535Z,1017.96
2018-09-30T00:39:48.473Z,1017.96
2018-09-30T00:40:58.421Z,1017.96
2018-09-30T00:42:08.110Z,1017.96
2018-09-30T00:43:18.063Z,1017.96
2018-09-30T00:44:27.501Z,1017.95
2018-09-30T00:45:37.168Z,1017.92
2018-09-30T00:46:47.100Z,1017.94
2018-09-30T00:47:57.042Z,1017.91
2018-09-30T00:49:06.971Z,1017.89
2018-09-30T00:50:16.662Z,1017.89
2018-09-30T00:51:26.581Z,1017.88
2018-09-30T00:52:36.283Z,1017.88
2018-09-30T00:53:46.231Z,1017.87
2018-09-30T00:54:56.151Z,1017.78
2018-09-30T00:56:06.097Z,1017.77
2018-09-30T00:57:16.053Z,1017.73
2018-09-30T00:58:25.740Z,1017.74
2018-09-30T00:59:35.158Z,1017.7
2018-09-30T01:00:45.100Z,1017.7
2018-09-30T01:01:55.032Z,1017.66
2018-09-30T01:03:04.724Z,1017.66
2018-09-30T01:04:14.663Z,1017.7
2018-09-30T01:05:24.598Z,1017.67
2018-09-30T01:06:34.012Z,1017.67
2018-09-30T01:07:43.945Z,1017.65
2018-09-30T01:08:53.622Z,1017.64
2018-09-30T01:10:03.562Z,1017.63
2018-09-30T01:11:13.244Z,1017.62
2018-09-30T01:12:23.172Z,1017.64
2018-09-30T01:13:33.122Z,1017.59
2018-09-30T01:14:43.073Z,1017.61
2018-09-30T01:15:53.034Z,1017.6
2018-09-30T01:17:02.977Z,1017.62
2018-09-30T01:18:12.924Z,1017.63
2018-09-30T01:19:22.857Z,1017.57
2018-09-30T01:20:32.795Z,1017.6
2018-09-30T01:21:42.223Z,1017.53
2018-09-30T01:22:52.167Z,1017.54
2018-09-30T01:24:01.604Z,1017.54
2018-09-30T01:25:11.538Z,1017.5
2018-09-30T01:26:21.486Z,1017.53
2018-09-30T01:27:31.419Z,1017.46
2018-09-30T01:28:41.351Z,1017.46
2018-09-30T01:29:51.017Z,1017.44
2018-09-30T01:31:00.964Z,1017.43
2018-09-30T01:32:10.905Z,1017.38
2018-09-30T01:33:20.588Z,1017.35
2018-09-30T01:34:30.511Z,1017.33
2018-09-30T01:35:40.459Z,1017.31
2018-09-30T01:36:50.141Z,1017.34
2018-09-30T01:38:00.109Z,1017.31
2018-09-30T01:39:09.790Z,1017.25
2018-09-30T01:40:19.732Z,1017.26
2018-09-30T01:41:29.406Z,1017.25
2018-09-30T01:42:39.095Z,1017.29
2018-09-30T01:43:48.528Z,1017.25
2018-09-30T01:44:58.480Z,1017.32
2018-09-30T01:46:08.417Z,1017.32
2018-09-30T01:47:18.102Z,1017.28
2018-09-30T01:48:28.026Z,1017.31
2018-09-30T01:49:37.961Z,1017.31
2018-09-30T01:50:47.898Z,1017.31
2018-09-30T01:51:57.843Z,1017.31
2018-09-30T01:53:07.519Z,1017.31
2018-09-30T01:54:17.198Z,1017.28
2018-09-30T01:55:27.137Z,1017.25
2018-09-30T01:56:37.069Z,1017.28
2018-09-30T01:57:46.997Z,1017.22
2018-09-30T01:58:56.937Z,1017.16
2018-09-30T02:00:06.619Z,1017.14
2018-09-30T02:01:16.293Z,1017.16
2018-09-30T02:02:25.472Z,1017.14
2018-09-30T02:03:35.412Z,1017.07
2018-09-30T02:04:45.371Z,1017.05
2018-09-30T02:05:55.361Z,1017.06
2018-09-30T02:07:05.301Z,1017
2018-09-30T02:08:15.236Z,1017.03
2018-09-30T02:09:24.914Z,1017.04
2018-09-30T02:10:34.862Z,1017.04
2018-09-30T02:11:44.793Z,1017.03
2018-09-30T02:12:54.749Z,1017.02
2018-09-30T02:14:04.429Z,1016.98
2018-09-30T02:15:14.380Z,1016.93
2018-09-30T02:16:24.049Z,1016.92
2018-09-30T02:17:33.462Z,1016.91
2018-09-30T02:18:43.408Z,1016.88
2018-09-30T02:19:53.350Z,1016.92
2018-09-30T02:21:03.296Z,1016.87
2018-09-30T02:22:13.250Z,1016.84
2018-09-30T02:23:23.172Z,1016.79
2018-09-30T02:24:32.859Z,1016.78
2018-09-30T02:25:42.788Z,1016.72
2018-09-30T02:26:52.470Z,1016.7
2018-09-30T02:28:02.418Z,1016.65
2018-09-30T02:29:12.100Z,1016.62
2018-09-30T02:30:22.029Z,1016.64
2018-09-30T02:31:31.785Z,1016.61
2018-09-30T02:32:41.478Z,1016.62
2018-09-30T02:33:51.427Z,1016.6
2018-09-30T02:35:01.130Z,1016.62
2018-09-30T02:36:10.799Z,1016.58
2018-09-30T02:37:20.493Z,1016.57
2018-09-30T02:38:30.439Z,1016.63
2018-09-30T02:39:40.383Z,1016.55
2018-09-30T02:40:50.335Z,1016.5
2018-09-30T02:42:00.014Z,1016.49
2018-09-30T02:43:09.955Z,1016.46
2018-09-30T02:44:19.900Z,1016.45
2018-09-30T02:45:29.835Z,1016.41
2018-09-30T02:46:39.794Z,1016.39
2018-09-30T02:47:49.233Z,1016.4
2018-09-30T02:48:58.667Z,1016.37
2018-09-30T02:50:08.634Z,1016.4
2018-09-30T02:51:18.591Z,1016.4
2018-09-30T02:52:28.021Z,1016.37
2018-09-30T02:53:37.714Z,1016.41
2018-09-30T02:54:47.387Z,1016.4
2018-09-30T02:55:57.340Z,1016.33
2018-09-30T02:57:07.291Z,1016.36
2018-09-30T02:58:16.972Z,1016.33
2018-09-30T02:59:26.910Z,1016.32
2018-09-30T03:00:36.853Z,1016.32
2018-09-30T03:01:46.797Z,1016.31
2018-09-30T03:02:56.515Z,1016.33
2018-09-30T03:04:06.457Z,1016.32
2018-09-30T03:05:16.411Z,1016.25
2018-09-30T03:06:26.357Z,1016.3
2018-09-30T03:07:36.030Z,1016.27
2018-09-30T03:08:45.975Z,1016.27
2018-09-30T03:09:55.908Z,1016.25
2018-09-30T03:11:05.590Z,1016.24
2018-09-30T03:12:15.281Z,1016.21
2018-09-30T03:13:25.211Z,1016.2
2018-09-30T03:14:35.157Z,1016.16
2018-09-30T03:15:44.845Z,1016.17
2018-09-30T03:16:54.771Z,1016.18
2018-09-30T03:18:04.196Z,1016.18
2018-09-30T03:19:14.139Z,1016.16
2018-09-30T03:20:24.097Z,1016.21
2018-09-30T03:21:33.781Z,1016.17
2018-09-30T03:22:43.451Z,1016.13
2018-09-30T03:23:53.388Z,1016.13
2018-09-30T03:25:03.082Z,1016.13
2018-09-30T03:26:12.774Z,1016.07
2018-09-30T03:27:22.455Z,1016.06
2018-09-30T03:28:32.401Z,1016.03
2018-09-30T03:29:42.326Z,1016.01
2018-09-30T03:30:52.273Z,1016
2018-09-30T03:32:02.244Z,1015.99
2018-09-30T03:33:12.207Z,1016.01
2018-09-30T03:34:22.129Z,1015.98
2018-09-30T03:35:31.814Z,1015.96
2018-09-30T03:36:41.480Z,1015.9
2018-09-30T03:37:51.418Z,1015.88
2018-09-30T03:39:01.362Z,1015.88
2018-09-30T03:40:11.297Z,1015.84
2018-09-30T03:41:21.218Z,1015.84
2018-09-30T03:42:31.155Z,1015.85
2018-09-30T03:43:41.093Z,1015.85
2018-09-30T03:44:51.015Z,1015.8
2018-09-30T03:46:00.948Z,1015.77
2018-09-30T03:47:10.903Z,1015.78
2018-09-30T03:48:20.831Z,1015.7
2018-09-30T03:49:30.812Z,1015.71
2018-09-30T03:50:40.763Z,1015.72
2018-09-30T03:51:50.441Z,1015.75
2018-09-30T03:53:00.398Z,1015.73
2018-09-30T03:54:10.342Z,1015.71
2018-09-30T03:55:20.283Z,1015.7
2018-09-30T03:56:30.075Z,1015.65
2018-09-30T03:57:40.415Z,1015.65
2018-09-30T03:58:50.363Z,1015.64
2018-09-30T04:00:00.067Z,1015.62
2018-09-30T04:01:09.492Z,1015.58
2018-09-30T04:02:19.199Z,1015.57
2018-09-30T04:03:28.878Z,1015.58
2018-09-30T04:04:38.829Z,1015.54
2018-09-30T04:05:55.108Z,1015.54
2018-09-30T04:07:05.103Z,1015.48
2018-09-30T04:08:14.776Z,1015.5
2018-09-30T04:09:24.746Z,1015.47
2018-09-30T04:10:34.961Z,1015.46
2018-09-30T04:11:44.900Z,1015.44
2018-09-30T04:12:54.592Z,1015.43
2018-09-30T04:14:04.285Z,1015.42
2018-09-30T04:15:14.214Z,1015.4
2018-09-30T04:16:24.154Z,1015.38
2018-09-30T04:17:34.052Z,1015.34
2018-09-30T04:18:43.998Z,1015.33
2018-09-30T04:19:53.690Z,1015.31
2018-09-30T04:21:03.631Z,1015.32
2018-09-30T04:22:13.301Z,1015.29
2018-09-30T04:23:23.236Z,1015.29
2018-09-30T04:24:33.160Z,1015.26
2018-09-30T04:25:43.122Z,1015.2
2018-09-30T04:26:53.078Z,1015.19
2018-09-30T04:28:03.013Z,1015.18
2018-09-30T04:29:12.952Z,1015.14
2018-09-30T04:30:22.666Z,1015.17
2018-09-30T04:31:32.631Z,1015.18
2018-09-30T04:32:42.319Z,1015.14
2018-09-30T04:33:52.256Z,1015.13
2018-09-30T04:35:01.943Z,1015.16
2018-09-30T04:36:11.887Z,1015.18
2018-09-30T04:37:21.313Z,1015.15
2018-09-30T04:38:31.267Z,1015.14
2018-09-30T04:39:40.970Z,1015.18
2018-09-30T04:40:50.911Z,1015.19
2018-09-30T04:42:00.852Z,1015.17
2018-09-30T04:43:10.858Z,1015.21
2018-09-30T04:44:20.547Z,1015.19
2018-09-30T04:45:30.247Z,1015.17
2018-09-30T04:46:39.922Z,1015.2
2018-09-30T04:47:49.347Z,1015.22
2018-09-30T04:48:59.030Z,1015.22
2018-09-30T04:50:08.820Z,1015.19
2018-09-30T04:51:18.988Z,1015.2
2018-09-30T04:52:28.925Z,1015.19
2018-09-30T04:53:38.863Z,1015.2
2018-09-30T04:54:48.550Z,1015.15
2018-09-30T04:55:58.231Z,1015.23
2018-09-30T04:57:08.173Z,1015.23
2018-09-30T04:58:17.876Z,1015.24
2018-09-30T04:59:27.288Z,1015.22
2018-09-30T05:00:36.982Z,1015.23
2018-09-30T05:01:46.959Z,1015.27
2018-09-30T05:02:56.640Z,1015.24
2018-09-30T05:04:06.582Z,1015.29
2018-09-30T05:05:16.539Z,1015.28
2018-09-30T05:06:25.722Z,1015.28
2018-09-30T05:07:35.712Z,1015.27
2018-09-30T05:08:45.399Z,1015.29
2018-09-30T05:09:55.342Z,1015.25
2018-09-30T05:11:05.028Z,1015.29
2018-09-30T05:12:14.981Z,1015.3
2018-09-30T05:13:24.414Z,1015.29
2018-09-30T05:14:34.371Z,1015.27
2018-09-30T05:15:44.308Z,1015.31
2018-09-30T05:16:54.340Z,1015.31
2018-09-30T05:18:04.028Z,1015.29
2018-09-30T05:19:13.711Z,1015.27
2018-09-30T05:20:23.398Z,1015.25
2018-09-30T05:21:33.338Z,1015.22
2018-09-30T05:22:43.302Z,1015.28
2018-09-30T05:23:52.979Z,1015.23
2018-09-30T05:25:02.906Z,1015.21
2018-09-30T05:26:12.614Z,1015.25
2018-09-30T05:27:22.046Z,1015.24
2018-09-30T05:28:31.987Z,1015.2
2018-09-30T05:29:41.921Z,1015.24
2018-09-30T05:30:51.599Z,1015.21
2018-09-30T05:32:01.296Z,1015.18
2018-09-30T05:33:10.986Z,1015.2
2018-09-30T05:34:20.934Z,1015.18
2018-09-30T05:35:30.882Z,1015.16
2018-09-30T05:36:40.826Z,1015.13
2018-09-30T05:37:50.771Z,1015.16
2018-09-30T05:39:00.724Z,1015.13
2018-09-30T05:40:10.672Z,1015.13
2018-09-30T05:41:20.623Z,1015.11
2018-09-30T05:42:30.636Z,1015.08
2018-09-30T05:43:40.371Z,1015.09
2018-09-30T05:44:50.327Z,1015.07
2018-09-30T05:46:00.015Z,1015.09
2018-09-30T05:47:09.693Z,1015.04
2018-09-30T05:48:19.629Z,1015.09
2018-09-30T05:49:29.310Z,1015.1
2018-09-30T05:50:39.256Z,1015.08
2018-09-30T05:51:49.190Z,1015.09
2018-09-30T05:52:59.128Z,1015.09
2018-09-30T05:54:08.553Z,1015.05
2018-09-30T05:55:18.511Z,1015.02
2018-09-30T05:56:28.192Z,1015.04
2018-09-30T05:57:38.226Z,1015.02
2018-09-30T05:58:48.694Z,1015.04
2018-09-30T05:59:58.376Z,1015.05
2018-09-30T06:01:08.330Z,1015.07
2018-09-30T06:02:18.278Z,1015.07
2018-09-30T06:03:27.970Z,1015.06
2018-09-30T06:04:37.399Z,1015.06
2018-09-30T06:05:47.089Z,1015.05
2018-09-30T06:06:56.788Z,1015.04
2018-09-30T06:08:06.480Z,1014.99
2018-09-30T06:09:15.962Z,1015.01
2018-09-30T06:10:26.169Z,1014.94
2018-09-30T06:11:36.108Z,1015.04
2018-09-30T06:12:45.798Z,1015.01
2018-09-30T06:13:55.878Z,1015.02
2018-09-30T06:15:05.685Z,1015.03
2018-09-30T06:16:15.636Z,1015.01
2018-09-30T06:17:25.562Z,1014.98
2018-09-30T06:18:35.266Z,1014.97
2018-09-30T06:19:44.955Z,1014.97
2018-09-30T06:20:54.901Z,1014.95
2018-09-30T06:22:04.828Z,1014.99
2018-09-30T06:23:14.768Z,1014.97
2018-09-30T06:24:24.712Z,1015.01
2018-09-30T06:25:34.419Z,1015.02
2018-09-30T06:26:44.106Z,1015.02
2018-09-30T06:27:54.061Z,1014.99
2018-09-30T06:29:03.741Z,1014.99
2018-09-30T06:30:13.677Z,1015.01
2018-09-30T06:31:23.633Z,1014.98
2018-09-30T06:32:33.369Z,1014.99
2018-09-30T06:33:43.310Z,1014.97
2018-09-30T06:34:53.243Z,1015.04
2018-09-30T06:36:03.188Z,1014.97
2018-09-30T06:37:12.917Z,1015
2018-09-30T06:38:23.483Z,1014.98
2018-09-30T06:39:33.172Z,1014.98
2018-09-30T06:40:42.879Z,1015.02
2018-09-30T06:41:52.561Z,1015.05
2018-09-30T06:43:02.541Z,1015
2018-09-30T06:44:12.236Z,1015
2018-09-30T06:45:22.185Z,1015.03
2018-09-30T06:46:32.672Z,1015.01
2018-09-30T06:47:42.373Z,1015.02
2018-09-30T06:48:51.803Z,1015.03
2018-09-30T06:50:01.757Z,1015
2018-09-30T06:51:11.704Z,1014.99
2018-09-30T06:52:21.779Z,1014.99
2018-09-30T06:53:31.850Z,1014.95
2018-09-30T06:54:41.808Z,1015.03
2018-09-30T06:55:51.602Z,1014.92
2018-09-30T06:57:01.286Z,1014.97
2018-09-30T06:58:11.230Z,1014.91
2018-09-30T06:59:20.906Z,1014.96
2018-09-30T07:00:30.594Z,1014.95
2018-09-30T07:01:40.555Z,1014.94
2018-09-30T07:02:50.501Z,1014.88
2018-09-30T07:03:59.931Z,1014.92
2018-09-30T07:05:09.870Z,1014.9
2018-09-30T07:06:19.558Z,1014.91
2018-09-30T07:07:29.226Z,1014.91
2018-09-30T07:08:38.690Z,1014.86
2018-09-30T07:09:48.636Z,1014.87
2018-09-30T07:10:58.702Z,1014.87
2018-09-30T07:12:08.739Z,1014.86
2018-09-30T07:13:18.682Z,1014.81
2018-09-30T07:14:28.621Z,1014.82
2018-09-30T07:15:38.309Z,1014.78
2018-09-30T07:16:48.021Z,1014.79
2018-09-30T07:17:58.128Z,1014.74
2018-09-30T07:19:08.094Z,1014.75
2018-09-30T07:20:17.543Z,1014.8
2018-09-30T07:21:27.486Z,1014.76
2018-09-30T07:22:37.475Z,1014.77
2018-09-30T07:23:47.889Z,1014.73
2018-09-30T07:24:57.826Z,1014.74
2018-09-30T07:26:07.534Z,1014.71
2018-09-30T07:27:17.203Z,1014.69
2018-09-30T07:28:27.144Z,1014.78
2018-09-30T07:29:37.086Z,1014.8
2018-09-30T07:30:46.521Z,1014.79
2018-09-30T07:31:56.194Z,1014.82
2018-09-30T07:33:06.139Z,1014.79
2018-09-30T07:34:16.091Z,1014.8
2018-09-30T07:35:26.067Z,1014.81
2018-09-30T07:36:36.010Z,1014.79
2018-09-30T07:37:45.949Z,1014.79
2018-09-30T07:38:55.937Z,1014.76
2018-09-30T07:40:05.613Z,1014.77
2018-09-30T07:41:15.545Z,1014.77
2018-09-30T07:42:25.479Z,1014.73
2018-09-30T07:43:35.438Z,1014.76
2018-09-30T07:44:45.119Z,1014.7
2018-09-30T07:45:55.090Z,1014.68
2018-09-30T07:47:05.040Z,1014.67
2018-09-30T07:48:15.004Z,1014.7
2018-09-30T07:49:24.694Z,1014.71
2018-09-30T07:50:34.647Z,1014.71
2018-09-30T07:51:44.585Z,1014.71
2018-09-30T07:52:54.541Z,1014.68
2018-09-30T07:54:04.263Z,1014.73
2018-09-30T07:55:14.250Z,1014.79
2018-09-30T07:56:23.950Z,1014.72
2018-09-30T07:57:33.637Z,1014.75
2018-09-30T07:58:43.591Z,1014.84
2018-09-30T07:59:53.292Z,1014.85
2018-09-30T08:01:02.982Z,1014.82
2018-09-30T08:02:12.936Z,1014.75
2018-09-30T08:03:22.620Z,1014.8
2018-09-30T08:04:32.311Z,1014.75
2018-09-30T08:05:42.256Z,1014.72
2018-09-30T08:06:51.947Z,1014.73
2018-09-30T08:08:01.898Z,1014.72
2018-09-30T08:09:11.861Z,1014.76
2018-09-30T08:10:21.833Z,1014.69
2018-09-30T08:11:31.790Z,1014.64
2018-09-30T08:12:41.754Z,1014.69
2018-09-30T08:13:51.697Z,1014.66
2018-09-30T08:15:01.642Z,1014.67
2018-09-30T08:16:11.598Z,1014.68
2018-09-30T08:17:21.718Z,1014.64
2018-09-30T08:18:31.653Z,1014.63
2018-09-30T08:19:41.615Z,1014.59
2018-09-30T08:20:51.563Z,1014.53
2018-09-30T08:22:01.243Z,1014.54
2018-09-30T08:23:11.215Z,1014.55
2018-09-30T08:24:21.324Z,1014.55
2018-09-30T08:25:31.695Z,1014.49
2018-09-30T08:26:41.646Z,1014.47
2018-09-30T08:27:51.608Z,1014.45
2018-09-30T08:29:01.573Z,1014.5
2018-09-30T08:30:11.550Z,1014.47
2018-09-30T08:31:21.502Z,1014.47
2018-09-30T08:32:31.441Z,1014.45
2018-09-30T08:33:41.386Z,1014.41
2018-09-30T08:34:51.355Z,1014.41
2018-09-30T08:36:01.075Z,1014.39
2018-09-30T08:37:10.765Z,1014.39
2018-09-30T08:38:20.715Z,1014.35
2018-09-30T08:39:30.459Z,1014.36
2018-09-30T08:40:40.933Z,1014.37
2018-09-30T08:41:50.900Z,1014.38
2018-09-30T08:43:00.603Z,1014.35
2018-09-30T08:44:10.052Z,1014.4
2018-09-30T08:45:19.720Z,1014.39
2018-09-30T08:46:29.716Z,1014.37
2018-09-30T08:47:39.948Z,1014.33
2018-09-30T08:48:50.126Z,1014.31
2018-09-30T08:50:00.075Z,1014.3
2018-09-30T08:51:10.039Z,1014.35
2018-09-30T08:52:19.985Z,1014.31
2018-09-30T08:53:29.716Z,1014.34
2018-09-30T08:54:39.423Z,1014.36
2018-09-30T08:55:49.368Z,1014.35
2018-09-30T08:56:59.484Z,1014.36
2018-09-30T08:58:09.436Z,1014.36
2018-09-30T08:59:19.127Z,1014.31
2018-09-30T09:00:29.106Z,1014.33
2018-09-30T09:01:39.058Z,1014.4
2018-09-30T09:02:48.774Z,1014.27
2018-09-30T09:03:58.863Z,1014.24
2018-09-30T09:05:08.819Z,1014.27
2018-09-30T09:06:18.787Z,1014.29
2018-09-30T09:07:28.792Z,1014.27
2018-09-30T09:08:38.482Z,1014.24
2018-09-30T09:09:48.490Z,1014.27
2018-09-30T09:10:59.120Z,1014.21
2018-09-30T09:12:09.078Z,1014.26
2018-09-30T09:13:18.785Z,1014.24
2018-09-30T09:14:28.722Z,1014.21
2018-09-30T09:15:38.762Z,1014.22
2018-09-30T09:16:48.500Z,1014.23
2018-09-30T09:17:58.466Z,1014.22
2018-09-30T09:19:08.168Z,1014.22
2018-09-30T09:20:18.124Z,1014.3
2018-09-30T09:21:28.079Z,1014.18
2018-09-30T09:22:37.582Z,1014.18
2018-09-30T09:23:47.991Z,1014.17
2018-09-30T09:24:57.949Z,1014.09
2018-09-30T09:26:07.914Z,1014.2
2018-09-30T09:27:17.872Z,1014.25
2018-09-30T09:28:27.826Z,1014.16
2018-09-30T09:29:37.787Z,1014.13
2018-09-30T09:30:47.487Z,1014.13
2018-09-30T09:31:57.193Z,1014.16
2018-09-30T09:33:06.977Z,1014.14
2018-09-30T09:34:17.443Z,1014.11
2018-09-30T09:35:27.412Z,1014.09
2018-09-30T09:36:37.369Z,1014.04
2018-09-30T09:37:47.061Z,1014.05
2018-09-30T09:38:56.757Z,1013.98
2018-09-30T09:40:06.748Z,1013.99
2018-09-30T09:41:16.711Z,1013.94
2018-09-30T09:42:26.678Z,1014
2018-09-30T09:43:36.379Z,1013.93
2018-09-30T09:44:46.337Z,1013.87
2018-09-30T09:45:56.290Z,1013.88
2018-09-30T09:47:06.314Z,1013.84
2018-09-30T09:48:16.610Z,1013.81
2018-09-30T09:49:26.573Z,1013.78
2018-09-30T09:50:36.264Z,1013.76
2018-09-30T09:51:46.240Z,1013.87
2018-09-30T09:52:55.931Z,1013.83
2018-09-30T09:54:05.879Z,1013.77
2018-09-30T09:55:15.849Z,1013.78
2018-09-30T09:56:25.835Z,1013.78
2018-09-30T09:57:35.528Z,1013.75
2018-09-30T09:58:45.533Z,1013.76
2018-09-30T09:59:55.849Z,1013.72
2018-09-30T10:01:05.826Z,1013.73
2018-09-30T10:02:15.795Z,1013.71
2018-09-30T10:03:25.744Z,1013.73
2018-09-30T10:04:35.449Z,1013.65
2018-09-30T10:05:45.414Z,1013.62
2018-09-30T10:06:55.356Z,1013.65
2018-09-30T10:08:05.091Z,1013.57
2018-09-30T10:09:15.137Z,1013.57
2018-09-30T10:10:25.109Z,1013.57
2018-09-30T10:11:35.062Z,1013.55
2018-09-30T10:12:44.515Z,1013.5
2018-09-30T10:13:54.219Z,1013.55
2018-09-30T10:15:03.908Z,1013.48
2018-09-30T10:16:13.869Z,1013.59
2018-09-30T10:17:23.870Z,1013.51
2018-09-30T10:18:33.576Z,1013.47
2018-09-30T10:19:43.539Z,1013.46
2018-09-30T10:20:53.514Z,1013.37
2018-09-30T10:22:03.465Z,1013.38
2018-09-30T10:23:13.162Z,1013.36
2018-09-30T10:24:22.914Z,1013.35
2018-09-30T10:25:32.881Z,1013.28
2018-09-30T10:26:42.838Z,1013.26
2018-09-30T10:27:52.914Z,1013.21
2018-09-30T10:29:02.914Z,1013.21
2018-09-30T10:30:12.879Z,1013.14
2018-09-30T10:31:22.849Z,1013.17
2018-09-30T10:32:32.565Z,1013.1
2018-09-30T10:33:42.517Z,1013.04
2018-09-30T10:34:52.471Z,1013.04
2018-09-30T10:36:02.445Z,1013.09
2018-09-30T10:37:12.142Z,1012.97
2018-09-30T10:38:21.882Z,1012.98
2018-09-30T10:39:32.623Z,1012.95
2018-09-30T10:40:42.586Z,1012.98
2018-09-30T10:41:52.285Z,1012.91
2018-09-30T10:43:02.248Z,1012.83
2018-09-30T10:44:12.209Z,1012.78
2018-09-30T10:45:21.635Z,1012.78
2018-09-30T10:46:31.596Z,1012.79
2018-09-30T10:47:41.583Z,1012.78
2018-09-30T10:48:51.031Z,1012.87
2018-09-30T10:50:00.988Z,1012.83
2018-09-30T10:51:10.691Z,1012.82
2018-09-30T10:52:20.649Z,1012.76
2018-09-30T10:53:30.620Z,1012.77
2018-09-30T10:54:40.588Z,1012.66
2018-09-30T10:55:50.561Z,1012.66
2018-09-30T10:57:00.508Z,1012.69
2018-09-30T10:58:10.466Z,1012.6
2018-09-30T10:59:20.465Z,1012.61
2018-09-30T11:00:30.448Z,1012.59
2018-09-30T11:01:40.149Z,1012.61
2018-09-30T11:02:50.100Z,1012.66
2018-09-30T11:03:59.794Z,1012.58
2018-09-30T11:05:09.777Z,1012.59
2018-09-30T11:06:19.751Z,1012.56
2018-09-30T11:07:29.726Z,1012.5
2018-09-30T11:08:39.438Z,1012.5
2018-09-30T11:09:49.283Z,1012.55
2018-09-30T11:10:59.678Z,1012.56
2018-09-30T11:12:09.384Z,1012.5
2018-09-30T11:13:19.070Z,1012.47
2018-09-30T11:14:28.780Z,1012.57
2018-09-30T11:15:38.482Z,1012.43
2018-09-30T11:16:48.462Z,1012.37
2018-09-30T11:17:58.419Z,1012.39
2018-09-30T11:19:08.101Z,1012.37
2018-09-30T11:20:18.057Z,1012.36
2018-09-30T11:21:27.763Z,1012.32
2018-09-30T11:22:37.768Z,1012.32
2018-09-30T11:23:47.836Z,1012.36
2018-09-30T11:24:57.787Z,1012.32
2018-09-30T11:26:07.247Z,1012.21
2018-09-30T11:27:16.971Z,1012.23
2018-09-30T11:28:26.988Z,1012.19
2018-09-30T11:29:36.939Z,1012.17
2018-09-30T11:30:46.895Z,1012.19
2018-09-30T11:31:56.656Z,1012.17
2018-09-30T11:33:06.845Z,1012.11
2018-09-30T11:34:16.816Z,1012.05
2018-09-30T11:35:26.258Z,1012.02
2018-09-30T11:36:36.230Z,1011.95
2018-09-30T11:37:46.204Z,1011.96
2018-09-30T11:38:55.656Z,1011.94
2018-09-30T11:40:05.379Z,1011.9
2018-09-30T11:41:15.323Z,1011.86
2018-09-30T11:42:25.257Z,1011.98
2018-09-30T11:43:35.269Z,1011.91
2018-09-30T11:44:44.984Z,1011.82
2018-09-30T11:45:54.946Z,1011.78
2018-09-30T11:47:04.394Z,1011.74
2018-09-30T11:48:13.832Z,1011.79
2018-09-30T11:49:23.543Z,1011.75
2018-09-30T11:50:33.510Z,1011.77
2018-09-30T11:51:43.460Z,1011.74
2018-09-30T11:52:53.412Z,1011.72
2018-09-30T11:54:03.378Z,1011.67
2018-09-30T11:55:13.373Z,1011.7
2018-09-30T11:56:23.341Z,1011.66
2018-09-30T11:57:33.309Z,1011.66
2018-09-30T11:58:43.020Z,1011.7
2018-09-30T11:59:52.990Z,1011.64
2018-09-30T12:01:03.009Z,1011.6
2018-09-30T12:02:12.945Z,1011.6
2018-09-30T12:03:22.924Z,1011.55
2018-09-30T12:04:32.894Z,1011.56
2018-09-30T12:05:42.851Z,1011.56
2018-09-30T12:06:52.874Z,1011.58
2018-09-30T12:08:02.576Z,1011.47
2018-09-30T12:09:12.526Z,1011.52
2018-09-30T12:10:21.707Z,1011.45
2018-09-30T12:11:31.654Z,1011.4
2018-09-30T12:12:41.615Z,1011.43
2018-09-30T12:13:51.591Z,1011.41
2018-09-30T12:15:01.296Z,1011.4
2018-09-30T12:16:11.249Z,1011.35
2018-09-30T12:17:21.202Z,1011.35
2018-09-30T12:18:31.181Z,1011.27
2018-09-30T12:19:41.345Z,1011.31
2018-09-30T12:20:51.042Z,1011.3
2018-09-30T12:22:01.021Z,1011.3
2018-09-30T12:23:10.988Z,1011.28
2018-09-30T12:24:20.425Z,1011.3
2018-09-30T12:25:30.394Z,1011.26
2018-09-30T12:26:40.101Z,1011.21
2018-09-30T12:27:50.066Z,1011.22
2018-09-30T12:29:00.024Z,1011.29
2018-09-30T12:30:09.990Z,1011.23
2018-09-30T12:31:19.987Z,1011.2
2018-09-30T12:32:29.961Z,1011.22
2018-09-30T12:33:39.929Z,1011.23
2018-09-30T12:34:49.393Z,1011.17
2018-09-30T12:35:59.100Z,1011.17
2018-09-30T12:37:09.064Z,1011.11
2018-09-30T12:38:19.028Z,1011.07
2018-09-30T12:39:28.991Z,1011.05
2018-09-30T12:40:38.968Z,1011.02
2018-09-30T12:41:48.660Z,1011.04
2018-09-30T12:42:58.622Z,1010.99
2018-09-30T12:44:08.553Z,1010.98
2018-09-30T12:45:18.532Z,1011.01
2018-09-30T12:46:28.503Z,1010.99
2018-09-30T12:47:38.468Z,1010.95
2018-09-30T12:48:48.546Z,1010.89
2018-09-30T12:49:58.525Z,1010.88
2018-09-30T12:51:08.219Z,1010.84
2018-09-30T12:52:17.935Z,1010.87
2018-09-30T12:53:27.894Z,1010.84
2018-09-30T12:54:37.844Z,1010.85
2018-09-30T12:55:47.814Z,1010.72
2018-09-30T12:56:57.524Z,1010.73
2018-09-30T12:58:07.544Z,1010.78
2018-09-30T12:59:17.965Z,1010.78
2018-09-30T13:00:27.935Z,1010.81
2018-09-30T13:01:37.899Z,1010.71
2018-09-30T13:02:47.609Z,1010.77
2018-09-30T13:03:57.571Z,1010.75
2018-09-30T13:05:07.526Z,1010.76
2018-09-30T13:06:17.231Z,1010.76
2018-09-30T13:07:26.942Z,1010.74
2018-09-30T13:08:36.890Z,1010.72
2018-09-30T13:09:46.604Z,1010.69
2018-09-30T13:10:56.555Z,1010.68
2018-09-30T13:12:06.515Z,1010.65
2018-09-30T13:13:16.210Z,1010.67
2018-09-30T13:14:26.214Z,1010.63
2018-09-30T13:15:36.242Z,1010.59
2018-09-30T13:16:45.944Z,1010.7
2018-09-30T13:17:55.915Z,1010.57
2018-09-30T13:19:05.878Z,1010.57
2018-09-30T13:20:15.844Z,1010.54
2018-09-30T13:21:25.927Z,1010.51
2018-09-30T13:22:35.893Z,1010.51
2018-09-30T13:23:45.859Z,1010.48
2018-09-30T13:24:55.844Z,1010.4
2018-09-30T13:26:05.555Z,1010.36
2018-09-30T13:27:15.535Z,1010.39
2018-09-30T13:28:25.483Z,1010.47
2018-09-30T13:29:35.187Z,1010.42
2018-09-30T13:30:45.167Z,1010.42
2018-09-30T13:31:54.868Z,1010.34
2018-09-30T13:33:04.300Z,1010.4
2018-09-30T13:34:14.264Z,1010.29
2018-09-30T13:35:23.979Z,1010.31
2018-09-30T13:36:33.948Z,1010.3
2018-09-30T13:37:43.951Z,1010.26
2018-09-30T13:38:53.899Z,1010.22
2018-09-30T13:40:03.911Z,1010.22
2018-09-30T13:41:14.822Z,1010.09
2018-09-30T13:42:25.370Z,1010.23
2018-09-30T13:43:35.337Z,1010.31
2018-09-30T13:44:45.301Z,1010.25
2018-09-30T13:45:54.992Z,1010.26
2018-09-30T13:47:05.133Z,1010.27
2018-09-30T13:48:15.104Z,1010.25
2018-09-30T13:49:25.066Z,1010.2
2018-09-30T13:50:34.782Z,1010.26
2018-09-30T13:51:44.490Z,1010.23
2018-09-30T13:52:55.904Z,1010.19
2018-09-30T13:54:18.010Z,1010.09
2018-09-30T13:55:31.029Z,1010.14
2018-09-30T13:56:47.000Z,1010.12
2018-09-30T13:57:56.968Z,1010.08
2018-09-30T13:59:06.686Z,1010.06
2018-09-30T14:00:16.646Z,1010.01
2018-09-30T14:01:26.646Z,1009.98
2018-09-30T14:02:36.352Z,1010.02
2018-09-30T14:03:46.331Z,1010.06
2018-09-30T14:04:56.272Z,1010.05
2018-09-30T14:06:06.235Z,1010.16
2018-09-30T14:07:15.700Z,1010.08
2018-09-30T14:08:25.658Z,1009.98